KQA532 HKJK-DNMM
Flight info
| Callsign | KQA532 |
|---|---|
| Flight time | 4h 34m |
| Altitude | 40000 |
| Route | IBRAT3E NAKAT UL433 EDGOT EDGOT1N |
| Aircraft | B788/H-SDE1E2E3FGHIJ2J3J4J5M1RWXYZ/LB1D1 |
Departure
| Time | 2026-05-04 05:37 |
|---|---|
| Airport | Jomo Kenyatta International Airport (HKJK) |
Arrival
| Time | 2026-05-04 10:11 |
|---|---|
| Airport | Murtala Muhammed International Airport (DNMM) |
| Time | Latitude | Longitude | Altitude | Speed | Heading |
|---|---|---|---|---|---|
| 2026-05-04 05:20 | -1.33357 | 36.92394 | 5345 ft | 0 kts | 16° |
| 2026-05-04 05:23 | -1.33358 | 36.92394 | 5343 ft | 1 kts | 16° |
| 2026-05-04 05:23 | -1.33381 | 36.92390 | 5347 ft | 4 kts | 2° |
| 2026-05-04 05:23 | -1.33406 | 36.92394 | 5346 ft | 4 kts | 335° |
| 2026-05-04 05:23 | -1.33423 | 36.92409 | 5348 ft | 4 kts | 300° |
| 2026-05-04 05:24 | -1.33430 | 36.92433 | 5349 ft | 4 kts | 274° |
| 2026-05-04 05:24 | -1.33428 | 36.92460 | 5349 ft | 4 kts | 257° |
| 2026-05-04 05:24 | -1.33420 | 36.92481 | 5349 ft | 1 kts | 243° |
| 2026-05-04 05:32 | -1.33422 | 36.92476 | 5349 ft | 5 kts | 243° |
| 2026-05-04 05:32 | -1.33442 | 36.92419 | 5348 ft | 11 kts | 262° |
| 2026-05-04 05:33 | -1.33500 | 36.92287 | 5347 ft | 12 kts | 232° |
| 2026-05-04 05:33 | -1.33523 | 36.92217 | 5344 ft | 10 kts | 288° |
| 2026-05-04 05:33 | -1.33476 | 36.92166 | 5347 ft | 10 kts | 324° |
| 2026-05-04 05:33 | -1.33413 | 36.92121 | 5346 ft | 12 kts | 324° |
| 2026-05-04 05:34 | -1.33342 | 36.92070 | 5344 ft | 13 kts | 323° |
| 2026-05-04 05:34 | -1.33264 | 36.92012 | 5344 ft | 15 kts | 324° |
| 2026-05-04 05:34 | -1.33179 | 36.91952 | 5344 ft | 16 kts | 324° |
| 2026-05-04 05:34 | -1.33088 | 36.91887 | 5346 ft | 16 kts | 323° |
| 2026-05-04 05:35 | -1.33011 | 36.91827 | 5352 ft | 10 kts | 323° |
| 2026-05-04 05:35 | -1.32957 | 36.91789 | 5353 ft | 11 kts | 323° |
| 2026-05-04 05:35 | -1.32880 | 36.91733 | 5354 ft | 19 kts | 325° |
| 2026-05-04 05:35 | -1.32763 | 36.91669 | 5351 ft | 15 kts | 4° |
| 2026-05-04 05:36 | -1.32679 | 36.91749 | 5351 ft | 34 kts | 55° |
| 2026-05-04 05:36 | -1.32402 | 36.92127 | 5343 ft | 99 kts | 53° |
| 2026-05-04 05:36 | -1.31881 | 36.92839 | 5329 ft | 153 kts | 54° |
| 2026-05-04 05:36 | -1.31154 | 36.93834 | 5373 ft | 198 kts | 52° |
| 2026-05-04 05:37 | -1.30278 | 36.95037 | 5743 ft | 229 kts | 53° |
| 2026-05-04 05:37 | -1.29378 | 36.96398 | 6606 ft | 240 kts | 73° |
| 2026-05-04 05:37 | -1.29343 | 36.98025 | 7532 ft | 243 kts | 103° |
| 2026-05-04 05:38 | -1.31983 | 37.00233 | 8558 ft | 279 kts | 176° |
| 2026-05-04 05:38 | -1.33879 | 36.99829 | 9440 ft | 287 kts | 210° |
| 2026-05-04 05:38 | -1.35283 | 36.98406 | 10259 ft | 297 kts | 242° |
| 2026-05-04 05:38 | -1.35893 | 36.96351 | 10560 ft | 324 kts | 262° |
| 2026-05-04 05:39 | -1.36116 | 36.94019 | 10780 ft | 351 kts | 264° |
| 2026-05-04 05:39 | -1.37000 | 36.88994 | 11883 ft | 374 kts | 255° |
| 2026-05-04 05:39 | -1.37650 | 36.86455 | 12588 ft | 380 kts | 258° |
| 2026-05-04 05:40 | -1.37003 | 36.81226 | 14079 ft | 391 kts | 291° |
| 2026-05-04 05:40 | -1.36003 | 36.78687 | 14776 ft | 395 kts | 292° |
| 2026-05-04 05:40 | -1.34993 | 36.76115 | 15467 ft | 399 kts | 291° |
| 2026-05-04 05:41 | -1.34048 | 36.73491 | 16180 ft | 403 kts | 290° |
| 2026-05-04 05:41 | -1.33103 | 36.70837 | 16840 ft | 408 kts | 290° |
| 2026-05-04 05:41 | -1.32113 | 36.68168 | 17493 ft | 412 kts | 290° |
| 2026-05-04 05:41 | -1.31104 | 36.65480 | 18129 ft | 415 kts | 290° |
| 2026-05-04 05:42 | -1.30101 | 36.62759 | 18711 ft | 419 kts | 290° |
| 2026-05-04 05:42 | -1.29096 | 36.60010 | 19222 ft | 423 kts | 290° |
| 2026-05-04 05:42 | -1.28090 | 36.57279 | 19750 ft | 426 kts | 290° |
| 2026-05-04 05:42 | -1.27057 | 36.54490 | 20268 ft | 430 kts | 290° |
| 2026-05-04 05:43 | -1.26017 | 36.51676 | 20768 ft | 434 kts | 290° |
| 2026-05-04 05:43 | -1.24972 | 36.48836 | 21262 ft | 437 kts | 290° |
| 2026-05-04 05:43 | -1.23918 | 36.45975 | 21753 ft | 441 kts | 290° |
| 2026-05-04 05:45 | -1.16297 | 36.25323 | 24900 ft | 463 kts | 290° |
| 2026-05-04 05:45 | -1.15181 | 36.22299 | 25287 ft | 465 kts | 290° |
| 2026-05-04 05:47 | -1.07202 | 36.00679 | 27873 ft | 483 kts | 290° |
| 2026-05-04 05:47 | -1.06038 | 35.97526 | 28216 ft | 485 kts | 290° |
| 2026-05-04 05:47 | -1.04867 | 35.94353 | 28558 ft | 488 kts | 290° |
| 2026-05-04 05:48 | -1.03690 | 35.91164 | 28890 ft | 490 kts | 290° |
| 2026-05-04 05:48 | -1.02508 | 35.87961 | 29192 ft | 493 kts | 290° |
| 2026-05-04 05:48 | -1.01318 | 35.84737 | 29502 ft | 495 kts | 290° |
| 2026-05-04 05:48 | -1.00122 | 35.81498 | 29824 ft | 498 kts | 290° |
| 2026-05-04 05:49 | -0.98923 | 35.78249 | 30115 ft | 500 kts | 290° |
| 2026-05-04 05:49 | -0.97717 | 35.74983 | 30387 ft | 502 kts | 290° |
| 2026-05-04 05:49 | -0.96506 | 35.71703 | 30627 ft | 504 kts | 290° |
| 2026-05-04 05:49 | -0.95288 | 35.68406 | 30860 ft | 507 kts | 290° |
| 2026-05-04 05:51 | -0.86654 | 35.45024 | 32494 ft | 518 kts | 291° |
| 2026-05-04 05:51 | -0.85409 | 35.41651 | 32777 ft | 518 kts | 291° |
| 2026-05-04 05:52 | -0.84162 | 35.38276 | 33065 ft | 518 kts | 291° |
| 2026-05-04 05:52 | -0.83034 | 35.34857 | 33347 ft | 518 kts | 287° |
| 2026-05-04 05:52 | -0.82014 | 35.31402 | 33598 ft | 519 kts | 287° |
| 2026-05-04 05:52 | -0.80978 | 35.27948 | 33879 ft | 519 kts | 287° |
| 2026-05-04 05:53 | -0.79944 | 35.24493 | 34164 ft | 519 kts | 287° |
| 2026-05-04 05:54 | -0.72784 | 35.00435 | 36119 ft | 513 kts | 287° |
| 2026-05-04 05:55 | -0.71768 | 34.97026 | 36413 ft | 511 kts | 287° |
| 2026-05-04 05:55 | -0.70755 | 34.93628 | 36672 ft | 510 kts | 288° |
| 2026-05-04 05:55 | -0.69745 | 34.90234 | 36929 ft | 510 kts | 288° |
| 2026-05-04 05:55 | -0.68734 | 34.86839 | 37189 ft | 509 kts | 288° |
| 2026-05-04 05:56 | -0.67725 | 34.83454 | 37442 ft | 508 kts | 288° |
| 2026-05-04 05:56 | -0.66718 | 34.80074 | 37692 ft | 508 kts | 288° |
| 2026-05-04 05:56 | -0.65712 | 34.76696 | 37938 ft | 507 kts | 288° |
| 2026-05-04 05:56 | -0.64709 | 34.73329 | 38203 ft | 506 kts | 288° |
| 2026-05-04 05:57 | -0.63706 | 34.69964 | 38443 ft | 505 kts | 288° |
| 2026-05-04 05:57 | -0.62704 | 34.66602 | 38685 ft | 504 kts | 288° |
| 2026-05-04 05:57 | -0.61719 | 34.63293 | 38898 ft | 503 kts | 288° |
| 2026-05-04 05:57 | -0.60720 | 34.59943 | 39101 ft | 503 kts | 288° |
| 2026-05-04 05:58 | -0.59788 | 34.56578 | 39276 ft | 503 kts | 286° |
| 2026-05-04 05:58 | -0.58872 | 34.53210 | 39458 ft | 502 kts | 287° |
| 2026-05-04 05:58 | -0.57909 | 34.49860 | 39640 ft | 502 kts | 287° |
| 2026-05-04 05:58 | -0.56978 | 34.46506 | 39851 ft | 500 kts | 286° |
| 2026-05-04 05:59 | -0.56083 | 34.43151 | 40068 ft | 499 kts | 286° |
| 2026-05-04 05:59 | -0.55173 | 34.39792 | 40074 ft | 502 kts | 287° |
| 2026-05-04 05:59 | -0.53309 | 34.33073 | 40061 ft | 500 kts | 286° |
| 2026-05-04 06:00 | -0.51491 | 34.26397 | 40064 ft | 496 kts | 286° |
| 2026-05-04 06:00 | -0.49662 | 34.19755 | 40060 ft | 495 kts | 286° |
| 2026-05-04 06:01 | -0.47846 | 34.13119 | 40055 ft | 495 kts | 286° |
| 2026-05-04 06:03 | -0.40395 | 33.87841 | 40061 ft | 495 kts | 289° |
| 2026-05-04 06:05 | -0.30603 | 33.58475 | 40067 ft | 494 kts | 289° |
| 2026-05-04 06:06 | -0.28437 | 33.51980 | 40068 ft | 492 kts | 289° |
| 2026-05-04 06:06 | -0.26312 | 33.45478 | 40067 ft | 492 kts | 286° |
| 2026-05-04 06:07 | -0.24265 | 33.38950 | 40067 ft | 493 kts | 288° |
| 2026-05-04 06:07 | -0.22233 | 33.32410 | 40073 ft | 493 kts | 287° |
| 2026-05-04 06:08 | -0.20221 | 33.25911 | 40076 ft | 493 kts | 288° |
| 2026-05-04 06:08 | -0.18180 | 33.19371 | 40068 ft | 493 kts | 287° |
| 2026-05-04 06:09 | -0.16155 | 33.12831 | 40069 ft | 493 kts | 287° |
| 2026-05-04 06:11 | -0.08033 | 32.86702 | 40086 ft | 493 kts | 287° |
| 2026-05-04 06:13 | 0.00095 | 32.60550 | 40161 ft | 493 kts | 287° |
| 2026-05-04 06:14 | 0.07538 | 32.37709 | 40164 ft | 495 kts | 289° |
| 2026-05-04 06:15 | 0.09877 | 32.31238 | 40163 ft | 495 kts | 290° |
| 2026-05-04 06:15 | 0.12254 | 32.24773 | 40155 ft | 496 kts | 290° |
| 2026-05-04 06:16 | 0.14610 | 32.18289 | 40153 ft | 497 kts | 290° |
| 2026-05-04 06:16 | 0.16983 | 32.11808 | 40144 ft | 497 kts | 290° |
| 2026-05-04 06:17 | 0.19329 | 32.05369 | 40142 ft | 496 kts | 290° |
| 2026-05-04 06:17 | 0.21697 | 31.98889 | 40132 ft | 497 kts | 290° |
| 2026-05-04 06:18 | 0.24063 | 31.92405 | 40130 ft | 497 kts | 290° |
| 2026-05-04 06:20 | 0.33539 | 31.66437 | 40129 ft | 497 kts | 290° |
| 2026-05-04 06:21 | 0.39454 | 31.50227 | 40117 ft | 496 kts | 290° |
| 2026-05-04 06:22 | 0.41817 | 31.43749 | 40117 ft | 496 kts | 290° |
| 2026-05-04 06:25 | 0.58339 | 30.98459 | 40107 ft | 495 kts | 290° |
| 2026-05-04 06:26 | 0.60697 | 30.91996 | 40106 ft | 495 kts | 290° |
| 2026-05-04 06:26 | 0.63052 | 30.85537 | 40104 ft | 495 kts | 290° |
| 2026-05-04 06:27 | 0.68937 | 30.69401 | 40087 ft | 494 kts | 290° |
| 2026-05-04 06:28 | 0.71282 | 30.62961 | 40080 ft | 493 kts | 290° |
| 2026-05-04 06:28 | 0.73623 | 30.56525 | 40072 ft | 493 kts | 290° |
| 2026-05-04 06:29 | 0.75964 | 30.50094 | 40065 ft | 492 kts | 290° |
| 2026-05-04 06:29 | 0.78303 | 30.43663 | 40061 ft | 493 kts | 290° |
| 2026-05-04 06:30 | 0.80629 | 30.37272 | 40055 ft | 493 kts | 290° |
| 2026-05-04 06:30 | 0.82972 | 30.30829 | 40050 ft | 494 kts | 290° |
| 2026-05-04 06:31 | 0.85311 | 30.24382 | 40045 ft | 494 kts | 290° |
| 2026-05-04 06:31 | 0.87654 | 30.17932 | 40046 ft | 494 kts | 290° |
| 2026-05-04 06:33 | 0.97010 | 29.92158 | 40030 ft | 492 kts | 290° |
| 2026-05-04 06:34 | 0.99343 | 29.85732 | 40028 ft | 492 kts | 290° |
| 2026-05-04 06:34 | 1.01672 | 29.79313 | 40024 ft | 491 kts | 290° |
| 2026-05-04 06:36 | 1.10938 | 29.53799 | 40017 ft | 488 kts | 290° |
| 2026-05-04 06:37 | 1.13255 | 29.47427 | 40012 ft | 488 kts | 290° |
| 2026-05-04 06:37 | 1.15574 | 29.41050 | 40014 ft | 488 kts | 290° |
| 2026-05-04 06:38 | 1.17901 | 29.34673 | 40010 ft | 488 kts | 290° |
| 2026-05-04 06:40 | 1.27201 | 29.09164 | 40008 ft | 488 kts | 290° |
| 2026-05-04 06:40 | 1.29526 | 29.02786 | 40006 ft | 488 kts | 290° |
| 2026-05-04 06:41 | 1.31846 | 28.96409 | 40009 ft | 488 kts | 290° |
| 2026-05-04 06:41 | 1.34154 | 28.90031 | 40005 ft | 488 kts | 290° |
| 2026-05-04 06:42 | 1.36470 | 28.83653 | 40006 ft | 488 kts | 290° |
| 2026-05-04 06:44 | 1.45715 | 28.58150 | 40005 ft | 490 kts | 290° |
| 2026-05-04 06:44 | 1.48033 | 28.51752 | 40007 ft | 489 kts | 290° |
| 2026-05-04 06:45 | 1.50348 | 28.45365 | 40003 ft | 489 kts | 290° |
| 2026-05-04 06:45 | 1.52664 | 28.38974 | 39999 ft | 489 kts | 290° |
| 2026-05-04 06:46 | 1.54981 | 28.32579 | 39999 ft | 489 kts | 290° |
| 2026-05-04 06:46 | 1.57299 | 28.26182 | 39991 ft | 489 kts | 290° |
| 2026-05-04 06:48 | 1.66542 | 28.00665 | 39983 ft | 487 kts | 290° |
| 2026-05-04 06:50 | 1.75385 | 27.76239 | 39981 ft | 487 kts | 290° |
| 2026-05-04 06:51 | 1.78059 | 27.68850 | 39975 ft | 486 kts | 290° |
| 2026-05-04 06:51 | 1.79990 | 27.63516 | 39977 ft | 488 kts | 290° |
| 2026-05-04 06:52 | 1.82297 | 27.57139 | 39978 ft | 488 kts | 290° |
| 2026-05-04 06:52 | 1.84606 | 27.50757 | 39978 ft | 488 kts | 290° |
| 2026-05-04 06:53 | 1.86913 | 27.44378 | 39976 ft | 488 kts | 290° |
| 2026-05-04 06:53 | 1.89221 | 27.37999 | 39976 ft | 488 kts | 290° |
| 2026-05-04 06:54 | 1.91531 | 27.31613 | 39977 ft | 489 kts | 290° |
| 2026-05-04 06:54 | 1.93837 | 27.25259 | 39978 ft | 489 kts | 290° |
| 2026-05-04 06:55 | 1.96152 | 27.18871 | 39976 ft | 489 kts | 290° |
| 2026-05-04 06:55 | 1.98465 | 27.12491 | 39977 ft | 488 kts | 290° |
| 2026-05-04 06:57 | 2.07715 | 26.86963 | 39975 ft | 489 kts | 290° |
| 2026-05-04 06:58 | 2.10026 | 26.80573 | 39975 ft | 488 kts | 290° |
| 2026-05-04 06:58 | 2.12324 | 26.74192 | 39976 ft | 487 kts | 290° |
| 2026-05-04 06:59 | 2.14623 | 26.67822 | 39974 ft | 487 kts | 290° |
| 2026-05-04 06:59 | 2.16920 | 26.61449 | 39973 ft | 487 kts | 290° |
| 2026-05-04 07:01 | 2.26109 | 26.35959 | 39973 ft | 488 kts | 290° |
| 2026-05-04 07:02 | 2.28405 | 26.29586 | 39976 ft | 487 kts | 290° |
| 2026-05-04 07:02 | 2.30697 | 26.23223 | 39971 ft | 486 kts | 290° |
| 2026-05-04 07:03 | 2.32986 | 26.16869 | 39967 ft | 486 kts | 290° |
| 2026-05-04 07:03 | 2.35274 | 26.10516 | 39966 ft | 486 kts | 290° |
| 2026-05-04 07:04 | 2.37567 | 26.04148 | 39964 ft | 487 kts | 290° |
| 2026-05-04 07:04 | 2.39860 | 25.97778 | 39970 ft | 487 kts | 290° |
| 2026-05-04 07:05 | 2.42151 | 25.91415 | 39968 ft | 486 kts | 290° |
| 2026-05-04 07:05 | 2.44440 | 25.85056 | 39974 ft | 486 kts | 290° |
| 2026-05-04 07:06 | 2.47875 | 25.75508 | 39976 ft | 486 kts | 290° |
| 2026-05-04 07:07 | 2.50161 | 25.69153 | 39976 ft | 485 kts | 290° |
| 2026-05-04 07:09 | 2.59278 | 25.43801 | 39973 ft | 484 kts | 290° |
| 2026-05-04 07:09 | 2.61557 | 25.37462 | 39978 ft | 484 kts | 290° |
| 2026-05-04 07:10 | 2.63832 | 25.31130 | 39978 ft | 483 kts | 290° |
| 2026-05-04 07:12 | 2.72877 | 25.05953 | 39966 ft | 482 kts | 290° |
| 2026-05-04 07:12 | 2.75144 | 24.99640 | 39964 ft | 482 kts | 290° |
| 2026-05-04 07:13 | 2.77425 | 24.93284 | 39966 ft | 483 kts | 290° |
| 2026-05-04 07:13 | 2.79678 | 24.87008 | 39965 ft | 483 kts | 290° |
| 2026-05-04 07:14 | 2.84282 | 24.70874 | 39964 ft | 483 kts | 284° |
| 2026-05-04 07:15 | 2.85882 | 24.64349 | 39966 ft | 483 kts | 284° |
| 2026-05-04 07:15 | 2.87458 | 24.57820 | 39966 ft | 483 kts | 284° |
| 2026-05-04 07:16 | 2.89045 | 24.51296 | 39968 ft | 482 kts | 284° |
| 2026-05-04 07:16 | 2.90623 | 24.44781 | 39966 ft | 482 kts | 284° |
| 2026-05-04 07:17 | 2.92202 | 24.38272 | 39965 ft | 481 kts | 284° |
| 2026-05-04 07:17 | 2.93780 | 24.31762 | 39964 ft | 481 kts | 284° |
| 2026-05-04 07:18 | 2.95358 | 24.25251 | 39967 ft | 482 kts | 284° |
| 2026-05-04 07:18 | 2.96936 | 24.18737 | 39965 ft | 482 kts | 284° |
| 2026-05-04 07:19 | 2.98514 | 24.12221 | 39967 ft | 482 kts | 284° |
| 2026-05-04 07:19 | 3.00092 | 24.05707 | 39966 ft | 482 kts | 284° |
| 2026-05-04 07:20 | 3.01669 | 23.99192 | 39968 ft | 482 kts | 284° |
| 2026-05-04 07:20 | 3.03247 | 23.92672 | 39971 ft | 482 kts | 284° |
| 2026-05-04 07:22 | 3.09546 | 23.66627 | 39973 ft | 483 kts | 284° |
| 2026-05-04 07:23 | 3.11126 | 23.60090 | 39967 ft | 483 kts | 284° |
| 2026-05-04 07:23 | 3.12704 | 23.53558 | 39968 ft | 483 kts | 284° |
| 2026-05-04 07:24 | 3.14280 | 23.47033 | 39965 ft | 483 kts | 284° |
| 2026-05-04 07:24 | 3.15858 | 23.40499 | 39968 ft | 483 kts | 284° |
| 2026-05-04 07:26 | 3.22319 | 23.14370 | 39973 ft | 485 kts | 285° |
| 2026-05-04 07:27 | 3.24044 | 23.07848 | 39974 ft | 485 kts | 285° |
| 2026-05-04 07:27 | 3.25735 | 23.01320 | 39979 ft | 485 kts | 285° |
| 2026-05-04 07:28 | 3.27439 | 22.94786 | 39977 ft | 485 kts | 285° |
| 2026-05-04 07:28 | 3.29140 | 22.88253 | 39977 ft | 485 kts | 285° |
| 2026-05-04 07:29 | 3.30841 | 22.81714 | 39974 ft | 486 kts | 285° |
| 2026-05-04 07:29 | 3.32545 | 22.75170 | 39977 ft | 486 kts | 285° |
| 2026-05-04 07:30 | 3.34248 | 22.68620 | 39977 ft | 486 kts | 285° |
| 2026-05-04 07:30 | 3.35954 | 22.62065 | 39976 ft | 487 kts | 285° |
| 2026-05-04 07:31 | 3.37645 | 22.55557 | 39977 ft | 487 kts | 285° |
| 2026-05-04 07:33 | 3.44464 | 22.29312 | 39977 ft | 487 kts | 285° |
| 2026-05-04 07:33 | 3.46169 | 22.22745 | 39975 ft | 487 kts | 285° |
| 2026-05-04 07:34 | 3.47873 | 22.16177 | 39976 ft | 488 kts | 285° |
| 2026-05-04 07:34 | 3.49577 | 22.09609 | 39973 ft | 487 kts | 285° |
| 2026-05-04 07:35 | 3.51257 | 22.03039 | 39973 ft | 487 kts | 284° |
| 2026-05-04 07:35 | 3.52877 | 21.96462 | 39976 ft | 487 kts | 284° |
| 2026-05-04 07:36 | 3.54537 | 21.89885 | 39972 ft | 488 kts | 284° |
| 2026-05-04 07:38 | 3.61097 | 21.63549 | 39975 ft | 487 kts | 284° |
| 2026-05-04 07:38 | 3.62458 | 21.58078 | 39972 ft | 487 kts | 284° |
| 2026-05-04 07:39 | 3.64093 | 21.51493 | 39975 ft | 488 kts | 284° |
| 2026-05-04 07:39 | 3.65731 | 21.44902 | 39973 ft | 488 kts | 284° |
| 2026-05-04 07:40 | 3.67368 | 21.38306 | 39973 ft | 488 kts | 284° |
| 2026-05-04 07:40 | 3.69003 | 21.31716 | 39975 ft | 488 kts | 284° |
| 2026-05-04 07:41 | 3.70638 | 21.25125 | 39974 ft | 488 kts | 284° |
| 2026-05-04 07:41 | 3.72262 | 21.18576 | 39973 ft | 488 kts | 284° |
| 2026-05-04 07:42 | 3.73896 | 21.11986 | 39971 ft | 488 kts | 284° |
| 2026-05-04 07:42 | 3.75530 | 21.05392 | 39970 ft | 488 kts | 284° |
| 2026-05-04 07:43 | 3.77163 | 20.98799 | 39970 ft | 488 kts | 284° |
| 2026-05-04 07:43 | 3.78795 | 20.92210 | 39967 ft | 488 kts | 284° |
| 2026-05-04 07:44 | 3.80426 | 20.85622 | 39967 ft | 487 kts | 284° |
| 2026-05-04 07:44 | 3.82056 | 20.79036 | 39964 ft | 487 kts | 284° |
| 2026-05-04 07:45 | 3.83683 | 20.72457 | 39961 ft | 487 kts | 284° |
| 2026-05-04 07:45 | 3.85297 | 20.65874 | 39960 ft | 487 kts | 284° |
| 2026-05-04 07:46 | 3.86885 | 20.59285 | 39959 ft | 487 kts | 284° |
| 2026-05-04 07:46 | 3.88491 | 20.52698 | 39957 ft | 487 kts | 284° |
| 2026-05-04 07:47 | 3.90116 | 20.46108 | 39962 ft | 488 kts | 284° |
| 2026-05-04 07:49 | 3.96615 | 20.19759 | 39961 ft | 487 kts | 284° |
| 2026-05-04 07:49 | 3.98239 | 20.13174 | 39953 ft | 487 kts | 284° |
| 2026-05-04 07:50 | 3.99859 | 20.06593 | 39952 ft | 487 kts | 284° |
| 2026-05-04 07:50 | 4.01481 | 20.00008 | 39953 ft | 487 kts | 284° |
| 2026-05-04 07:51 | 4.03101 | 19.93426 | 39953 ft | 487 kts | 284° |
| 2026-05-04 07:51 | 4.04721 | 19.86843 | 39951 ft | 487 kts | 284° |
| 2026-05-04 07:52 | 4.06340 | 19.80261 | 39953 ft | 487 kts | 284° |
| 2026-05-04 07:52 | 4.07962 | 19.73662 | 39958 ft | 488 kts | 284° |
| 2026-05-04 07:54 | 4.14474 | 19.47257 | 39961 ft | 489 kts | 285° |
| 2026-05-04 07:55 | 4.16107 | 19.40649 | 39957 ft | 488 kts | 285° |
| 2026-05-04 07:55 | 4.17736 | 19.34049 | 39954 ft | 488 kts | 285° |
| 2026-05-04 07:56 | 4.19366 | 19.27447 | 39952 ft | 488 kts | 285° |
| 2026-05-04 07:56 | 4.20982 | 19.20898 | 39953 ft | 487 kts | 285° |
| 2026-05-04 07:57 | 4.22605 | 19.14318 | 39954 ft | 486 kts | 285° |
| 2026-05-04 07:57 | 4.24228 | 19.07733 | 39952 ft | 487 kts | 285° |
| 2026-05-04 07:58 | 4.25850 | 19.01151 | 39951 ft | 486 kts | 285° |
| 2026-05-04 07:58 | 4.27469 | 18.94579 | 39946 ft | 486 kts | 285° |
| 2026-05-04 07:59 | 4.29089 | 18.88002 | 39947 ft | 486 kts | 285° |
| 2026-05-04 07:59 | 4.30706 | 18.81433 | 39952 ft | 486 kts | 285° |
| 2026-05-04 08:00 | 4.32322 | 18.74865 | 39957 ft | 485 kts | 285° |
| 2026-05-04 08:02 | 4.38483 | 18.48564 | 39973 ft | 485 kts | 281° |
| 2026-05-04 08:02 | 4.39599 | 18.41888 | 39974 ft | 486 kts | 281° |
| 2026-05-04 08:03 | 4.40719 | 18.35208 | 39976 ft | 486 kts | 281° |
| 2026-05-04 08:03 | 4.41835 | 18.28529 | 39968 ft | 486 kts | 281° |
| 2026-05-04 08:04 | 4.42951 | 18.21861 | 39967 ft | 485 kts | 281° |
| 2026-05-04 08:04 | 4.44063 | 18.15201 | 39967 ft | 484 kts | 281° |
| 2026-05-04 08:05 | 4.45174 | 18.08555 | 39966 ft | 483 kts | 281° |
| 2026-05-04 08:05 | 4.46283 | 18.01909 | 39971 ft | 484 kts | 281° |
| 2026-05-04 08:06 | 4.47393 | 17.95254 | 39972 ft | 484 kts | 281° |
| 2026-05-04 08:06 | 4.48502 | 17.88602 | 39971 ft | 484 kts | 281° |
| 2026-05-04 08:08 | 4.52914 | 17.62106 | 39978 ft | 482 kts | 281° |
| 2026-05-04 08:11 | 4.57884 | 17.32179 | 39982 ft | 484 kts | 281° |
| 2026-05-04 08:11 | 4.59536 | 17.22212 | 39984 ft | 483 kts | 281° |
| 2026-05-04 08:12 | 4.60637 | 17.15570 | 39983 ft | 483 kts | 281° |
| 2026-05-04 08:12 | 4.61736 | 17.08931 | 39979 ft | 483 kts | 281° |
| 2026-05-04 08:13 | 4.62840 | 17.02294 | 39985 ft | 483 kts | 281° |
| 2026-05-04 08:13 | 4.63949 | 16.95659 | 39983 ft | 483 kts | 281° |
| 2026-05-04 08:14 | 4.65053 | 16.89022 | 39983 ft | 483 kts | 281° |
| 2026-05-04 08:16 | 4.69475 | 16.62459 | 39985 ft | 483 kts | 280° |
| 2026-05-04 08:16 | 4.70579 | 16.55812 | 39986 ft | 484 kts | 281° |
| 2026-05-04 08:17 | 4.71677 | 16.49197 | 39985 ft | 485 kts | 281° |
| 2026-05-04 08:17 | 4.72783 | 16.42536 | 39991 ft | 484 kts | 280° |
| 2026-05-04 08:19 | 4.77185 | 16.15974 | 39982 ft | 481 kts | 280° |
| 2026-05-04 08:20 | 4.78281 | 16.09352 | 39986 ft | 482 kts | 280° |
| 2026-05-04 08:20 | 4.79377 | 16.02722 | 39986 ft | 482 kts | 280° |
| 2026-05-04 08:21 | 4.80472 | 15.96098 | 39988 ft | 481 kts | 280° |
| 2026-05-04 08:21 | 4.81564 | 15.89482 | 39986 ft | 481 kts | 280° |
| 2026-05-04 08:22 | 4.82656 | 15.82866 | 39985 ft | 481 kts | 280° |
| 2026-05-04 08:24 | 4.87007 | 15.56451 | 39994 ft | 480 kts | 280° |
| 2026-05-04 08:24 | 4.88092 | 15.49852 | 39995 ft | 479 kts | 280° |
| 2026-05-04 08:25 | 4.89176 | 15.43255 | 39995 ft | 480 kts | 280° |
| 2026-05-04 08:25 | 4.90260 | 15.36659 | 40001 ft | 479 kts | 280° |
| 2026-05-04 08:27 | 4.94406 | 15.11370 | 40009 ft | 479 kts | 280° |
| 2026-05-04 08:28 | 4.95486 | 15.04787 | 40009 ft | 478 kts | 280° |
| 2026-05-04 08:28 | 4.96563 | 14.98217 | 40009 ft | 478 kts | 280° |
| 2026-05-04 08:29 | 4.97639 | 14.91643 | 40013 ft | 477 kts | 280° |
| 2026-05-04 08:31 | 5.01939 | 14.65345 | 40025 ft | 477 kts | 280° |
| 2026-05-04 08:33 | 5.06223 | 14.39078 | 40034 ft | 478 kts | 280° |
| 2026-05-04 08:35 | 5.10484 | 14.12884 | 40032 ft | 475 kts | 280° |
| 2026-05-04 08:35 | 5.11546 | 14.06347 | 40034 ft | 475 kts | 280° |
| 2026-05-04 08:37 | 5.15263 | 13.83424 | 40031 ft | 475 kts | 280° |
| 2026-05-04 08:38 | 5.16320 | 13.76883 | 40031 ft | 475 kts | 280° |
| 2026-05-04 08:38 | 5.17377 | 13.70344 | 40033 ft | 474 kts | 280° |
| 2026-05-04 08:40 | 5.21598 | 13.44189 | 40031 ft | 474 kts | 280° |
| 2026-05-04 08:41 | 5.22644 | 13.37698 | 40034 ft | 475 kts | 280° |
| 2026-05-04 08:41 | 5.23696 | 13.31165 | 40030 ft | 474 kts | 280° |
| 2026-05-04 08:42 | 5.24746 | 13.24636 | 40038 ft | 474 kts | 280° |
| 2026-05-04 08:42 | 5.25797 | 13.18099 | 40038 ft | 475 kts | 280° |
| 2026-05-04 08:43 | 5.26850 | 13.11551 | 40035 ft | 476 kts | 279° |
| 2026-05-04 08:43 | 5.27902 | 13.04994 | 40038 ft | 476 kts | 279° |
| 2026-05-04 08:44 | 5.28952 | 12.98449 | 40040 ft | 474 kts | 279° |
| 2026-05-04 08:46 | 5.33131 | 12.72361 | 40043 ft | 473 kts | 279° |
| 2026-05-04 08:46 | 5.34173 | 12.65844 | 40047 ft | 473 kts | 279° |
| 2026-05-04 08:47 | 5.35215 | 12.59327 | 40050 ft | 473 kts | 279° |
| 2026-05-04 08:47 | 5.36254 | 12.52814 | 40049 ft | 473 kts | 279° |
| 2026-05-04 08:48 | 5.37293 | 12.46304 | 40050 ft | 472 kts | 279° |
| 2026-05-04 08:48 | 5.38331 | 12.39797 | 40053 ft | 472 kts | 279° |
| 2026-05-04 08:49 | 5.39369 | 12.33285 | 40053 ft | 473 kts | 279° |
| 2026-05-04 08:50 | 5.42996 | 12.10484 | 40063 ft | 473 kts | 279° |
| 2026-05-04 08:51 | 5.44025 | 12.04002 | 40070 ft | 474 kts | 279° |
| 2026-05-04 08:51 | 5.45060 | 11.97474 | 40068 ft | 474 kts | 279° |
| 2026-05-04 08:52 | 5.46096 | 11.90942 | 40069 ft | 474 kts | 279° |
| 2026-05-04 08:52 | 5.47131 | 11.84406 | 40069 ft | 474 kts | 279° |
| 2026-05-04 08:54 | 5.51261 | 11.58277 | 40062 ft | 474 kts | 279° |
| 2026-05-04 08:55 | 5.52291 | 11.51748 | 40065 ft | 474 kts | 279° |
| 2026-05-04 08:55 | 5.53322 | 11.45212 | 40064 ft | 474 kts | 279° |
| 2026-05-04 09:01 | 5.64126 | 10.76400 | 40062 ft | 476 kts | 278° |
| 2026-05-04 09:01 | 5.64552 | 10.69770 | 40057 ft | 476 kts | 273° |
| 2026-05-04 09:02 | 5.64841 | 10.63130 | 40063 ft | 476 kts | 273° |
| 2026-05-04 09:02 | 5.65138 | 10.56501 | 40061 ft | 475 kts | 273° |
| 2026-05-04 09:03 | 5.65428 | 10.49868 | 40061 ft | 476 kts | 273° |
| 2026-05-04 09:03 | 5.65722 | 10.43228 | 40056 ft | 477 kts | 273° |
| 2026-05-04 09:04 | 5.66013 | 10.36579 | 40071 ft | 477 kts | 273° |
| 2026-05-04 09:04 | 5.66305 | 10.29926 | 40079 ft | 477 kts | 273° |
| 2026-05-04 09:05 | 5.66594 | 10.23279 | 40075 ft | 476 kts | 273° |
| 2026-05-04 09:05 | 5.66884 | 10.16643 | 40077 ft | 475 kts | 273° |
| 2026-05-04 09:06 | 5.67171 | 10.10021 | 40073 ft | 474 kts | 273° |
| 2026-05-04 09:08 | 5.68314 | 9.83537 | 40049 ft | 476 kts | 273° |
| 2026-05-04 09:08 | 5.68598 | 9.76891 | 40043 ft | 476 kts | 273° |
| 2026-05-04 09:09 | 5.68880 | 9.70292 | 40031 ft | 476 kts | 273° |
| 2026-05-04 09:09 | 5.69164 | 9.63649 | 40027 ft | 476 kts | 273° |
| 2026-05-04 09:10 | 5.69446 | 9.57002 | 40021 ft | 477 kts | 273° |
| 2026-05-04 09:10 | 5.69728 | 9.50356 | 40019 ft | 476 kts | 273° |
| 2026-05-04 09:11 | 5.70009 | 9.43711 | 40022 ft | 477 kts | 273° |
| 2026-05-04 09:11 | 5.70289 | 9.37059 | 40018 ft | 477 kts | 273° |
| 2026-05-04 09:12 | 5.70601 | 9.30404 | 40022 ft | 476 kts | 278° |
| 2026-05-04 09:14 | 5.75037 | 9.04199 | 40024 ft | 477 kts | 280° |
| 2026-05-04 09:14 | 5.76155 | 8.97623 | 40024 ft | 478 kts | 280° |
| 2026-05-04 09:15 | 5.77085 | 8.92161 | 40027 ft | 477 kts | 280° |
| 2026-05-04 09:15 | 5.78262 | 8.85607 | 40020 ft | 477 kts | 282° |
| 2026-05-04 09:17 | 5.83852 | 8.56165 | 40025 ft | 477 kts | 281° |
| 2026-05-04 09:18 | 5.85092 | 8.49624 | 40020 ft | 477 kts | 281° |
| 2026-05-04 09:18 | 5.86272 | 8.43079 | 40026 ft | 476 kts | 280° |
| 2026-05-04 09:19 | 5.87434 | 8.36535 | 40026 ft | 476 kts | 281° |
| 2026-05-04 09:19 | 5.88613 | 8.29993 | 40028 ft | 476 kts | 280° |
| 2026-05-04 09:20 | 5.89777 | 8.23449 | 40023 ft | 476 kts | 280° |
| 2026-05-04 09:20 | 5.90949 | 8.16908 | 40024 ft | 476 kts | 280° |
| 2026-05-04 09:21 | 5.92115 | 8.10365 | 40027 ft | 476 kts | 280° |
| 2026-05-04 09:21 | 5.93285 | 8.03816 | 40021 ft | 476 kts | 280° |
| 2026-05-04 09:22 | 5.94451 | 7.97273 | 40020 ft | 476 kts | 280° |
| 2026-05-04 09:22 | 5.95618 | 7.90729 | 40023 ft | 476 kts | 280° |
| 2026-05-04 09:23 | 5.96783 | 7.84185 | 40024 ft | 476 kts | 280° |
| 2026-05-04 09:23 | 5.97938 | 7.77690 | 40023 ft | 476 kts | 280° |
| 2026-05-04 09:25 | 6.02580 | 7.51554 | 40026 ft | 474 kts | 280° |
| 2026-05-04 09:26 | 6.03737 | 7.45029 | 40023 ft | 475 kts | 281° |
| 2026-05-04 09:26 | 6.04894 | 7.38498 | 40026 ft | 475 kts | 280° |
| 2026-05-04 09:27 | 6.06046 | 7.31962 | 40023 ft | 475 kts | 280° |
| 2026-05-04 09:27 | 6.07200 | 7.25427 | 40026 ft | 475 kts | 280° |
| 2026-05-04 09:28 | 6.08352 | 7.18891 | 40027 ft | 475 kts | 280° |
| 2026-05-04 09:28 | 6.09502 | 7.12359 | 40025 ft | 475 kts | 280° |
| 2026-05-04 09:29 | 6.10652 | 7.05829 | 40022 ft | 474 kts | 280° |
| 2026-05-04 09:29 | 6.11805 | 6.99304 | 40019 ft | 475 kts | 281° |
| 2026-05-04 09:30 | 6.12987 | 6.92780 | 40021 ft | 474 kts | 281° |
| 2026-05-04 09:30 | 6.14152 | 6.86255 | 40020 ft | 474 kts | 281° |
| 2026-05-04 09:31 | 6.15324 | 6.79739 | 40019 ft | 474 kts | 281° |
| 2026-05-04 09:31 | 6.16489 | 6.73227 | 40023 ft | 474 kts | 281° |
| 2026-05-04 09:32 | 6.17657 | 6.66711 | 40020 ft | 474 kts | 281° |
| 2026-05-04 09:34 | 6.22290 | 6.40697 | 40018 ft | 474 kts | 280° |
| 2026-05-04 09:34 | 6.23446 | 6.34175 | 40016 ft | 475 kts | 280° |
| 2026-05-04 09:35 | 6.24599 | 6.27644 | 40014 ft | 475 kts | 280° |
| 2026-05-04 09:35 | 6.25751 | 6.21120 | 40012 ft | 474 kts | 280° |
| 2026-05-04 09:37 | 6.30342 | 5.95062 | 40007 ft | 474 kts | 280° |
| 2026-05-04 09:38 | 6.31489 | 5.88543 | 40010 ft | 474 kts | 280° |
| 2026-05-04 09:38 | 6.32638 | 5.82009 | 40010 ft | 475 kts | 280° |
| 2026-05-04 09:39 | 6.33787 | 5.75467 | 40007 ft | 475 kts | 280° |
| 2026-05-04 09:39 | 6.34934 | 5.68926 | 40007 ft | 475 kts | 280° |
| 2026-05-04 09:40 | 6.36081 | 5.62387 | 40009 ft | 475 kts | 280° |
| 2026-05-04 09:40 | 6.37228 | 5.55844 | 40008 ft | 475 kts | 280° |
| 2026-05-04 09:42 | 6.41795 | 5.29728 | 40001 ft | 474 kts | 280° |
| 2026-05-04 09:43 | 6.42933 | 5.23209 | 40000 ft | 473 kts | 280° |
| 2026-05-04 09:43 | 6.44068 | 5.16700 | 40000 ft | 472 kts | 280° |
| 2026-05-04 09:44 | 6.45202 | 5.10194 | 39998 ft | 472 kts | 280° |
| 2026-05-04 09:46 | 6.49724 | 4.84195 | 40006 ft | 473 kts | 280° |
| 2026-05-04 09:46 | 6.50793 | 4.77678 | 40018 ft | 472 kts | 277° |
| 2026-05-04 09:47 | 6.51710 | 4.71149 | 39999 ft | 472 kts | 278° |
| 2026-05-04 09:49 | 6.55290 | 4.44988 | 40018 ft | 473 kts | 278° |
| 2026-05-04 09:51 | 6.69467 | 4.27861 | 35546 ft | 524 kts | 349° |
| 2026-05-04 09:51 | 6.73101 | 4.27366 | 34572 ft | 531 kts | 355° |
| 2026-05-04 09:51 | 6.76776 | 4.27168 | 33517 ft | 522 kts | 358° |
| 2026-05-04 09:51 | 6.80353 | 4.27114 | 32412 ft | 506 kts | 359° |
| 2026-05-04 09:52 | 6.83822 | 4.27126 | 31342 ft | 493 kts | 0° |
| 2026-05-04 09:52 | 6.87223 | 4.27167 | 30308 ft | 486 kts | 1° |
| 2026-05-04 09:52 | 6.90600 | 4.27218 | 29172 ft | 485 kts | 1° |
| 2026-05-04 09:52 | 6.93952 | 4.27269 | 28034 ft | 478 kts | 1° |
| 2026-05-04 09:53 | 6.97249 | 4.27314 | 26941 ft | 470 kts | 1° |
| 2026-05-04 09:53 | 7.00486 | 4.27352 | 25884 ft | 462 kts | 1° |
| 2026-05-04 09:53 | 7.03675 | 4.27380 | 24875 ft | 454 kts | 1° |
| 2026-05-04 09:53 | 7.06799 | 4.27191 | 23917 ft | 447 kts | 349° |
| 2026-05-04 09:54 | 7.09768 | 4.26324 | 22882 ft | 443 kts | 337° |
| 2026-05-04 09:54 | 7.12429 | 4.24811 | 21818 ft | 438 kts | 324° |
| 2026-05-04 09:54 | 7.14591 | 4.22808 | 21557 ft | 411 kts | 313° |
| 2026-05-04 09:54 | 7.16226 | 4.20609 | 21713 ft | 380 kts | 302° |
| 2026-05-04 09:55 | 7.17373 | 4.18265 | 21734 ft | 368 kts | 291° |
| 2026-05-04 09:55 | 7.18063 | 4.15830 | 21732 ft | 357 kts | 281° |
| 2026-05-04 09:55 | 7.18319 | 4.13376 | 21734 ft | 350 kts | 271° |
| 2026-05-04 09:55 | 7.18160 | 4.10943 | 21737 ft | 348 kts | 261° |
| 2026-05-04 09:56 | 7.17653 | 4.08556 | 21740 ft | 350 kts | 257° |
| 2026-05-04 09:56 | 7.17109 | 4.06152 | 21738 ft | 353 kts | 258° |
| 2026-05-04 09:56 | 7.16558 | 4.03735 | 21736 ft | 355 kts | 257° |
| 2026-05-04 09:56 | 7.15997 | 4.01314 | 21735 ft | 355 kts | 257° |
| 2026-05-04 09:57 | 7.15434 | 3.98891 | 21738 ft | 356 kts | 257° |
| 2026-05-04 09:57 | 7.14876 | 3.96467 | 21738 ft | 355 kts | 257° |
| 2026-05-04 09:57 | 7.14318 | 3.94042 | 21594 ft | 358 kts | 257° |
| 2026-05-04 09:57 | 7.13754 | 3.91598 | 21224 ft | 358 kts | 257° |
| 2026-05-04 09:58 | 7.13192 | 3.89167 | 20860 ft | 356 kts | 257° |
| 2026-05-04 09:58 | 7.12633 | 3.86747 | 20499 ft | 354 kts | 257° |
| 2026-05-04 09:58 | 7.12076 | 3.84335 | 20146 ft | 353 kts | 257° |
| 2026-05-04 10:00 | 7.08154 | 3.67368 | 16340 ft | 358 kts | 257° |
| 2026-05-04 10:00 | 7.07588 | 3.64925 | 15657 ft | 359 kts | 257° |
| 2026-05-04 10:02 | 7.01115 | 3.49768 | 9170 ft | 347 kts | 206° |
| 2026-05-04 10:04 | 6.92113 | 3.41794 | 7874 ft | 285 kts | 225° |
| 2026-05-04 10:04 | 6.90800 | 3.40327 | 7297 ft | 280 kts | 226° |
| 2026-05-04 10:04 | 6.89511 | 3.38872 | 6707 ft | 277 kts | 226° |
| 2026-05-04 10:04 | 6.88231 | 3.37435 | 6087 ft | 274 kts | 226° |
| 2026-05-04 10:05 | 6.86966 | 3.36017 | 5455 ft | 269 kts | 226° |
| 2026-05-04 10:05 | 6.85726 | 3.34628 | 4841 ft | 264 kts | 227° |
| 2026-05-04 10:05 | 6.84513 | 3.33267 | 4201 ft | 259 kts | 227° |
| 2026-05-04 10:05 | 6.83312 | 3.31947 | 3582 ft | 253 kts | 222° |
| 2026-05-04 10:06 | 6.81839 | 3.31128 | 3303 ft | 233 kts | 194° |
| 2026-05-04 10:06 | 6.80311 | 3.30994 | 3293 ft | 214 kts | 178° |
| 2026-05-04 10:06 | 6.78857 | 3.31038 | 3291 ft | 200 kts | 178° |
| 2026-05-04 10:08 | 6.70786 | 3.31171 | 2361 ft | 186 kts | 179° |
| 2026-05-04 10:08 | 6.69515 | 3.31187 | 2125 ft | 180 kts | 179° |
| 2026-05-04 10:08 | 6.68286 | 3.31201 | 1900 ft | 174 kts | 179° |
| 2026-05-04 10:08 | 6.67100 | 3.31215 | 1703 ft | 167 kts | 179° |
| 2026-05-04 10:09 | 6.65968 | 3.31230 | 1508 ft | 158 kts | 179° |
| 2026-05-04 10:09 | 6.64905 | 3.31242 | 1301 ft | 150 kts | 179° |
| 2026-05-04 10:09 | 6.63874 | 3.31255 | 1103 ft | 147 kts | 179° |
| 2026-05-04 10:09 | 6.62839 | 3.31264 | 912 ft | 151 kts | 179° |
| 2026-05-04 10:10 | 6.61781 | 3.31276 | 702 ft | 154 kts | 178° |
| 2026-05-04 10:10 | 6.60695 | 3.31288 | 478 ft | 158 kts | 177° |
| 2026-05-04 10:10 | 6.59596 | 3.31304 | 250 ft | 156 kts | 178° |
| 2026-05-04 10:10 | 6.58522 | 3.31318 | 108 ft | 153 kts | 179° |
| 2026-05-04 10:11 | 6.57559 | 3.31327 | 70 ft | 112 kts | 178° |
| 2026-05-04 10:11 | 6.56965 | 3.31335 | 72 ft | 67 kts | 179° |
| 2026-05-04 10:11 | 6.56641 | 3.31352 | 82 ft | 43 kts | 168° |
| 2026-05-04 10:11 | 6.56425 | 3.31452 | 70 ft | 22 kts | 130° |
| 2026-05-04 10:12 | 6.56433 | 3.31538 | 69 ft | 6 kts | 27° |
| 2026-05-04 10:12 | 6.56513 | 3.31544 | 78 ft | 19 kts | 0° |
| 2026-05-04 10:12 | 6.56686 | 3.31545 | 79 ft | 31 kts | 359° |
| 2026-05-04 10:12 | 6.56871 | 3.31540 | 84 ft | 23 kts | 359° |
| 2026-05-04 10:13 | 6.57031 | 3.31539 | 81 ft | 23 kts | 359° |
| 2026-05-04 10:13 | 6.57190 | 3.31536 | 77 ft | 23 kts | 358° |
| 2026-05-04 10:13 | 6.57350 | 3.31533 | 76 ft | 23 kts | 360° |
| 2026-05-04 10:13 | 6.57506 | 3.31533 | 67 ft | 22 kts | 0° |
| 2026-05-04 10:14 | 6.57658 | 3.31533 | 64 ft | 21 kts | 0° |
| 2026-05-04 10:14 | 6.57799 | 3.31533 | 67 ft | 19 kts | 359° |
| 2026-05-04 10:16 | 6.58235 | 3.31995 | 96 ft | 21 kts | 67° |
| 2026-05-04 10:16 | 6.58271 | 3.32109 | 102 ft | 14 kts | 81° |
| 2026-05-04 10:16 | 6.58260 | 3.32185 | 103 ft | 9 kts | 129° |
| 2026-05-04 10:16 | 6.58193 | 3.32204 | 102 ft | 10 kts | 193° |
| 2026-05-04 10:17 | 6.58114 | 3.32170 | 99 ft | 14 kts | 199° |
| 2026-05-04 10:17 | 6.58053 | 3.32126 | 99 ft | 6 kts | 252° |
| 2026-05-04 10:19 | 6.58017 | 3.32032 | 97 ft | 0 kts | 246° |
| 2026-05-04 10:19 | 6.59184 | 3.31312 | 183 ft | 141 kts | 179° |
| 2026-05-04 10:20 | 6.58442 | 3.31320 | 103 ft | 152 kts | 179° |
| 2026-05-04 10:20 | 6.57987 | 3.31326 | 67 ft | 132 kts | 180° |
| 2026-05-04 10:21 | 6.59904 | 3.31301 | 322 ft | 158 kts | 177° |
| 2026-05-04 10:21 | 6.58838 | 3.31314 | 141 ft | 154 kts | 179° |
| 2026-05-04 10:21 | 6.57813 | 3.31327 | 76 ft | 133 kts | 180° |
| 2026-05-04 10:22 | 6.60218 | 3.31295 | 392 ft | 147 kts | 178° |
| 2026-05-04 10:22 | 6.59824 | 3.31302 | 308 ft | 157 kts | 178° |
| 2026-05-04 10:23 | 6.58746 | 3.31315 | 127 ft | 154 kts | 180° |
| 2026-05-04 10:23 | 6.57736 | 3.31327 | 76 ft | 128 kts | 179° |
| 2026-05-04 10:25 | 6.58017 | 3.32032 | 97 ft | 0 kts | 246° |